sensor_id;sensor_type;location;lat;lon;timestamp;pressure;altitude;pressure_sealevel;temperature;humidity
31162;BME280;17796;49.296;-117.656;2024-02-21T00:00:37;96100;;;5.59985;100.0
31162;BME280;17796;49.296;-117.656;2024-02-21T00:15:41;96100;;;5.52967;100.0
31162;BME280;17796;49.296;-117.656;2024-02-21T00:30:44;96100;;;5.39057;100.0
31162;BME280;17796;49.296;-117.656;2024-02-21T00:45:48;96100;;;5.14666;100.0
31162;BME280;17796;49.296;-117.656;2024-02-21T01:00:52;96100;;;5.08505;100.0
31162;BME280;17796;49.296;-117.656;2024-02-21T01:15:55;96100;;;4.95707;100.0
31162;BME280;17796;49.296;-117.656;2024-02-21T01:30:58;96100;;;4.91928;100.0
31162;BME280;17796;49.296;-117.656;2024-02-21T01:46:02;96100;;;4.40385;100.0
31162;BME280;17796;49.296;-117.656;2024-02-21T02:01:06;96100;;;4.30254;100.0
31162;BME280;17796;49.296;-117.656;2024-02-21T02:16:11;96100;;;4.2711;100.0
31162;BME280;17796;49.296;-117.656;2024-02-21T02:31:15;96100;;;4.42163;100.0
31162;BME280;17796;49.296;-117.656;2024-02-21T02:46:18;96100;;;4.6903;100.0
31162;BME280;17796;49.296;-117.656;2024-02-21T03:01:23;96100;;;4.10088;100.0
31162;BME280;17796;49.296;-117.656;2024-02-21T03:16:27;96100;;;3.02557;100.0
31162;BME280;17796;49.296;-117.656;2024-02-21T03:31:31;96100;;;2.94109;100.0
31162;BME280;17796;49.296;-117.656;2024-02-21T03:46:35;96100;;;3.80712;100.0
31162;BME280;17796;49.296;-117.656;2024-02-21T04:01:38;96100;;;3.74329;100.0
31162;BME280;17796;49.296;-117.656;2024-02-21T04:16:42;96100;;;3.98052;100.0
31162;BME280;17796;49.296;-117.656;2024-02-21T04:31:46;96100;;;3.96337;100.0
31162;BME280;17796;49.296;-117.656;2024-02-21T04:46:49;96100;;;4.08087;100.0
31162;BME280;17796;49.296;-117.656;2024-02-21T05:01:53;96100;;;3.7579;100.0
31162;BME280;17796;49.296;-117.656;2024-02-21T05:16:56;96100;;;3.91033;100.0
31162;BME280;17796;49.296;-117.656;2024-02-21T05:32:00;96100;;;4.08214;100.0
31162;BME280;17796;49.296;-117.656;2024-02-21T05:47:04;96100;;;3.64547;100.0
31162;BME280;17796;49.296;-117.656;2024-02-21T06:02:08;96100;;;2.87059;100.0
31162;BME280;17796;49.296;-117.656;2024-02-21T06:17:11;96100;;;3.31869;100.0
31162;BME280;17796;49.296;-117.656;2024-02-21T06:32:15;96100;;;3.81061;100.0
31162;BME280;17796;49.296;-117.656;2024-02-21T06:47:19;96100;;;3.26851;100.0
31162;BME280;17796;49.296;-117.656;2024-02-21T07:02:23;96100;;;3.00683;100.0
31162;BME280;17796;49.296;-117.656;2024-02-21T07:17:26;96100;;;3.29392;100.0
31162;BME280;17796;49.296;-117.656;2024-02-21T07:32:30;96100;;;2.68005;100.0
31162;BME280;17796;49.296;-117.656;2024-02-21T07:47:34;96200;;;3.06908;100.0
31162;BME280;17796;49.296;-117.656;2024-02-21T08:02:38;96200;;;3.06431;100.0
31162;BME280;17796;49.296;-117.656;2024-02-21T08:17:41;96200;;;2.51714;100.0
31162;BME280;17796;49.296;-117.656;2024-02-21T08:32:46;96200;;;3.22278;100.0
31162;BME280;17796;49.296;-117.656;2024-02-21T08:47:49;96200;;;3.45302;100.0
31162;BME280;17796;49.296;-117.656;2024-02-21T09:02:53;96200;;;2.99064;100.0
31162;BME280;17796;49.296;-117.656;2024-02-21T09:17:56;96100;;;2.90965;100.0
31162;BME280;17796;49.296;-117.656;2024-02-21T09:33:00;96100;;;3.064;100.0
31162;BME280;17796;49.296;-117.656;2024-02-21T09:48:15;96100;;;3.07035;100.0
31162;BME280;17796;49.296;-117.656;2024-02-21T10:03:36;96100;;;2.96968;100.0
31162;BME280;17796;49.296;-117.656;2024-02-21T10:18:40;96100;;;2.90457;100.0
31162;BME280;17796;49.296;-117.656;2024-02-21T10:33:43;96100;;;3.01795;100.0
31162;BME280;17796;49.296;-117.656;2024-02-21T10:48:47;96100;;;3.23612;100.0
31162;BME280;17796;49.296;-117.656;2024-02-21T11:04:01;96100;;;3.20087;100.0
31162;BME280;17796;49.296;-117.656;2024-02-21T11:19:07;96100;;;2.92649;100.0
31162;BME280;17796;49.296;-117.656;2024-02-21T11:34:12;96100;;;3.26629;100.0
31162;BME280;17796;49.296;-117.656;2024-02-21T11:49:19;96100;;;2.72737;100.0
31162;BME280;17796;49.296;-117.656;2024-02-21T12:04:23;96100;;;3.03637;100.0
31162;BME280;17796;49.296;-117.656;2024-02-21T12:19:29;96100;;;3.11703;100.0
31162;BME280;17796;49.296;-117.656;2024-02-21T12:34:33;96100;;;3.09067;100.0
31162;BME280;17796;49.296;-117.656;2024-02-21T12:49:36;96200;;;3.4508;100.0
31162;BME280;17796;49.296;-117.656;2024-02-21T13:04:40;96200;;;3.25232;100.0
31162;BME280;17796;49.296;-117.656;2024-02-21T13:19:43;96200;;;3.5267;100.0
31162;BME280;17796;49.296;-117.656;2024-02-21T13:34:47;96200;;;3.51717;100.0
31162;BME280;17796;49.296;-117.656;2024-02-21T13:49:50;96200;;;3.16181;100.0
31162;BME280;17796;49.296;-117.656;2024-02-21T14:04:54;96200;;;3.04494;100.0
31162;BME280;17796;49.296;-117.656;2024-02-21T14:19:58;96200;;;2.78294;100.0
31162;BME280;17796;49.296;-117.656;2024-02-21T14:35:03;96200;;;3.05161;100.0
31162;BME280;17796;49.296;-117.656;2024-02-21T14:50:07;96200;;;3.01922;100.0
31162;BME280;17796;49.296;-117.656;2024-02-21T15:05:11;96200;;;3.45334;100.0
31162;BME280;17796;49.296;-117.656;2024-02-21T15:20:15;96200;;;2.74356;100.0
31162;BME280;17796;49.296;-117.656;2024-02-21T15:35:19;96200;;;2.98683;100.0
31162;BME280;17796;49.296;-117.656;2024-02-21T15:50:23;96200;;;3.33679;100.0
31162;BME280;17796;49.296;-117.656;2024-02-21T16:05:27;96200;;;3.84967;100.0
31162;BME280;17796;49.296;-117.656;2024-02-21T16:20:30;96300;;;3.63849;100.0
31162;BME280;17796;49.296;-117.656;2024-02-21T16:35:34;96300;;;4.03482;100.0
31162;BME280;17796;49.296;-117.656;2024-02-21T16:50:38;96300;;;3.98052;100.0
31162;BME280;17796;49.296;-117.656;2024-02-21T17:05:43;96300;;;4.28348;100.0
31162;BME280;17796;49.296;-117.656;2024-02-21T17:20:46;96300;;;4.90372;100.0
31162;BME280;17796;49.296;-117.656;2024-02-21T17:35:50;96300;;;5.10316;100.0
31162;BME280;17796;49.296;-117.656;2024-02-21T17:50:54;96300;;;5.52999;100.0
31162;BME280;17796;49.296;-117.656;2024-02-21T18:06:03;96300;;;5.30006;100.0
31162;BME280;17796;49.296;-117.656;2024-02-21T18:21:07;96300;;;5.45123;100.0
31162;BME280;17796;49.296;-117.656;2024-02-21T18:36:10;96300;;;5.63383;100.0
31162;BME280;17796;49.296;-117.656;2024-02-21T18:51:14;96300;;;6.0305;100.0
31162;BME280;17796;49.296;-117.656;2024-02-21T19:06:18;96300;;;6.57134;100.0
31162;BME280;17796;49.296;-117.656;2024-02-21T19:21:22;96300;;;6.9318;100.0
31162;BME280;17796;49.296;-117.656;2024-02-21T19:36:27;96300;;;7.47678;100.0
31162;BME280;17796;49.296;-117.656;2024-02-21T19:51:31;96300;;;7.7334;100.0
31162;BME280;17796;49.296;-117.656;2024-02-21T20:06:35;96300;;;8.46354;100.0
31162;BME280;17796;49.296;-117.656;2024-02-21T20:21:39;96300;;;8.11863;100.0
31162;BME280;17796;49.296;-117.656;2024-02-21T20:36:42;96300;;;9.04791;100.0
31162;BME280;17796;49.296;-117.656;2024-02-21T20:51:46;96300;;;9.34423;100.0
31162;BME280;17796;49.296;-117.656;2024-02-21T21:06:51;96300;;;9.05077;100.0
31162;BME280;17796;49.296;-117.656;2024-02-21T21:21:56;96300;;;10.1325;100.0
31162;BME280;17796;49.296;-117.656;2024-02-21T21:37:00;96300;;;10.51458;90.04083
31162;BME280;17796;49.296;-117.656;2024-02-21T21:52:04;96300;;;9.97752;89.76649
31162;BME280;17796;49.296;-117.656;2024-02-21T22:07:08;96300;;;10.15918;90.54519
31162;BME280;17796;49.296;-117.656;2024-02-21T22:22:11;96300;;;10.28463;90.43186
31162;BME280;17796;49.296;-117.656;2024-02-21T22:37:15;96300;;;9.96291;95.61753
31162;BME280;17796;49.296;-117.656;2024-02-21T22:52:19;96300;;;8.04622;100.0
31162;BME280;17796;49.296;-117.656;2024-02-21T23:07:23;96300;;;7.39993;100.0
31162;BME280;17796;49.296;-117.656;2024-02-21T23:22:27;96400;;;6.3195;100.0
31162;BME280;17796;49.296;-117.656;2024-02-21T23:37:31;96400;;;8.58137;100.0
31162;BME280;17796;49.296;-117.656;2024-02-21T23:52:35;96400;;;7.66829;100.0
